sensor_id;sensor_type;location;lat;lon;timestamp;P1;durP1;ratioP1;P2;durP2;ratioP2
24787;SDS011;12883;52.662;5.196;2023-02-28T00:00:51;3.73;;;3.73;;
24787;SDS011;12883;52.662;5.196;2023-02-28T00:03:16;3.47;;;3.47;;
24787;SDS011;12883;52.662;5.196;2023-02-28T00:05:42;4.00;;;4.00;;
24787;SDS011;12883;52.662;5.196;2023-02-28T00:08:07;3.63;;;3.63;;
24787;SDS011;12883;52.662;5.196;2023-02-28T00:10:33;3.77;;;3.77;;
24787;SDS011;12883;52.662;5.196;2023-02-28T00:13:00;4.37;;;4.37;;
24787;SDS011;12883;52.662;5.196;2023-02-28T00:15:30;4.90;;;4.90;;
24787;SDS011;12883;52.662;5.196;2023-02-28T00:17:56;3.87;;;3.87;;
24787;SDS011;12883;52.662;5.196;2023-02-28T00:20:21;4.10;;;4.10;;
24787;SDS011;12883;52.662;5.196;2023-02-28T00:22:48;3.73;;;3.73;;
24787;SDS011;12883;52.662;5.196;2023-02-28T00:25:16;3.70;;;3.70;;
24787;SDS011;12883;52.662;5.196;2023-02-28T00:27:44;3.50;;;3.50;;
24787;SDS011;12883;52.662;5.196;2023-02-28T00:30:11;3.77;;;3.77;;
24787;SDS011;12883;52.662;5.196;2023-02-28T00:32:38;3.50;;;3.50;;
24787;SDS011;12883;52.662;5.196;2023-02-28T00:35:04;3.87;;;3.87;;
24787;SDS011;12883;52.662;5.196;2023-02-28T00:37:30;4.33;;;4.33;;
24787;SDS011;12883;52.662;5.196;2023-02-28T00:39:56;4.33;;;4.33;;
24787;SDS011;12883;52.662;5.196;2023-02-28T00:42:21;3.27;;;3.27;;
24787;SDS011;12883;52.662;5.196;2023-02-28T00:44:47;4.30;;;4.30;;
24787;SDS011;12883;52.662;5.196;2023-02-28T00:47:12;4.33;;;4.33;;
24787;SDS011;12883;52.662;5.196;2023-02-28T00:49:37;4.40;;;4.40;;
24787;SDS011;12883;52.662;5.196;2023-02-28T00:52:03;4.20;;;4.20;;
24787;SDS011;12883;52.662;5.196;2023-02-28T00:54:28;4.27;;;4.27;;
24787;SDS011;12883;52.662;5.196;2023-02-28T00:56:54;4.40;;;4.40;;
24787;SDS011;12883;52.662;5.196;2023-02-28T00:59:19;4.60;;;4.60;;
24787;SDS011;12883;52.662;5.196;2023-02-28T01:01:45;4.27;;;4.27;;
24787;SDS011;12883;52.662;5.196;2023-02-28T01:04:11;4.60;;;4.60;;
24787;SDS011;12883;52.662;5.196;2023-02-28T01:06:37;4.10;;;4.10;;
24787;SDS011;12883;52.662;5.196;2023-02-28T01:09:03;5.03;;;5.03;;
24787;SDS011;12883;52.662;5.196;2023-02-28T01:11:29;4.70;;;4.70;;
24787;SDS011;12883;52.662;5.196;2023-02-28T01:13:55;5.40;;;5.40;;
24787;SDS011;12883;52.662;5.196;2023-02-28T01:16:21;4.77;;;4.77;;
24787;SDS011;12883;52.662;5.196;2023-02-28T01:18:46;5.17;;;5.17;;
24787;SDS011;12883;52.662;5.196;2023-02-28T01:21:13;5.10;;;5.10;;
24787;SDS011;12883;52.662;5.196;2023-02-28T01:23:43;5.00;;;5.00;;
24787;SDS011;12883;52.662;5.196;2023-02-28T01:26:18;4.90;;;4.90;;
24787;SDS011;12883;52.662;5.196;2023-02-28T01:28:46;4.67;;;4.67;;
24787;SDS011;12883;52.662;5.196;2023-02-28T01:31:12;5.07;;;5.07;;
24787;SDS011;12883;52.662;5.196;2023-02-28T01:33:38;4.87;;;4.87;;
24787;SDS011;12883;52.662;5.196;2023-02-28T01:36:04;5.10;;;5.10;;
24787;SDS011;12883;52.662;5.196;2023-02-28T01:38:32;4.83;;;4.83;;
24787;SDS011;12883;52.662;5.196;2023-02-28T01:40:58;4.67;;;4.67;;
24787;SDS011;12883;52.662;5.196;2023-02-28T01:43:27;5.00;;;5.00;;
24787;SDS011;12883;52.662;5.196;2023-02-28T01:45:55;4.90;;;4.90;;
24787;SDS011;12883;52.662;5.196;2023-02-28T01:48:32;5.50;;;5.50;;
24787;SDS011;12883;52.662;5.196;2023-02-28T01:51:03;4.53;;;4.53;;
24787;SDS011;12883;52.662;5.196;2023-02-28T01:53:37;4.90;;;4.90;;
24787;SDS011;12883;52.662;5.196;2023-02-28T01:56:06;5.00;;;5.00;;
24787;SDS011;12883;52.662;5.196;2023-02-28T01:58:34;5.60;;;5.60;;
24787;SDS011;12883;52.662;5.196;2023-02-28T02:01:01;5.40;;;5.40;;
24787;SDS011;12883;52.662;5.196;2023-02-28T02:03:27;4.60;;;4.60;;
24787;SDS011;12883;52.662;5.196;2023-02-28T02:05:54;5.80;;;5.80;;
24787;SDS011;12883;52.662;5.196;2023-02-28T02:08:20;5.50;;;5.50;;
24787;SDS011;12883;52.662;5.196;2023-02-28T02:27:11;5.90;;;5.90;;
24787;SDS011;12883;52.662;5.196;2023-02-28T02:35:26;6.77;;;6.77;;
24787;SDS011;12883;52.662;5.196;2023-02-28T02:43:37;6.20;;;6.20;;
24787;SDS011;12883;52.662;5.196;2023-02-28T02:46:14;5.80;;;5.80;;
24787;SDS011;12883;52.662;5.196;2023-02-28T02:49:02;6.20;;;6.20;;
24787;SDS011;12883;52.662;5.196;2023-02-28T02:51:31;5.83;;;5.83;;
24787;SDS011;12883;52.662;5.196;2023-02-28T02:54:02;6.47;;;6.47;;
24787;SDS011;12883;52.662;5.196;2023-02-28T02:56:33;5.77;;;5.77;;
24787;SDS011;12883;52.662;5.196;2023-02-28T02:59:02;6.13;;;6.13;;
24787;SDS011;12883;52.662;5.196;2023-02-28T03:01:30;5.97;;;5.97;;
24787;SDS011;12883;52.662;5.196;2023-02-28T03:03:57;6.30;;;6.30;;
24787;SDS011;12883;52.662;5.196;2023-02-28T03:06:29;6.70;;;6.70;;
24787;SDS011;12883;52.662;5.196;2023-02-28T03:08:54;6.10;;;6.10;;
24787;SDS011;12883;52.662;5.196;2023-02-28T03:11:20;6.53;;;6.53;;
24787;SDS011;12883;52.662;5.196;2023-02-28T03:16:32;7.10;;;7.00;;
24787;SDS011;12883;52.662;5.196;2023-02-28T03:29:43;5.90;;;5.90;;
24787;SDS011;12883;52.662;5.196;2023-02-28T03:35:19;6.20;;;6.20;;
24787;SDS011;12883;52.662;5.196;2023-02-28T03:37:48;6.40;;;6.40;;
24787;SDS011;12883;52.662;5.196;2023-02-28T03:40:18;6.27;;;6.27;;
24787;SDS011;12883;52.662;5.196;2023-02-28T03:42:47;6.50;;;6.50;;
24787;SDS011;12883;52.662;5.196;2023-02-28T03:45:24;6.03;;;6.03;;
24787;SDS011;12883;52.662;5.196;2023-02-28T03:50:29;7.13;;;7.13;;
24787;SDS011;12883;52.662;5.196;2023-02-28T03:53:00;6.43;;;6.43;;
24787;SDS011;12883;52.662;5.196;2023-02-28T03:55:30;6.87;;;6.87;;
24787;SDS011;12883;52.662;5.196;2023-02-28T03:58:22;6.67;;;6.67;;
24787;SDS011;12883;52.662;5.196;2023-02-28T04:00:56;6.37;;;6.37;;
24787;SDS011;12883;52.662;5.196;2023-02-28T04:03:33;6.70;;;6.70;;
24787;SDS011;12883;52.662;5.196;2023-02-28T04:05:59;7.03;;;7.03;;
24787;SDS011;12883;52.662;5.196;2023-02-28T04:08:25;6.43;;;6.43;;
24787;SDS011;12883;52.662;5.196;2023-02-28T04:10:53;6.70;;;6.70;;
24787;SDS011;12883;52.662;5.196;2023-02-28T04:13:22;6.33;;;6.33;;
24787;SDS011;12883;52.662;5.196;2023-02-28T04:15:47;6.80;;;6.80;;
24787;SDS011;12883;52.662;5.196;2023-02-28T04:18:13;6.70;;;6.70;;
24787;SDS011;12883;52.662;5.196;2023-02-28T04:20:38;6.90;;;6.90;;
24787;SDS011;12883;52.662;5.196;2023-02-28T04:23:03;6.27;;;6.27;;
24787;SDS011;12883;52.662;5.196;2023-02-28T04:25:29;6.27;;;6.27;;
24787;SDS011;12883;52.662;5.196;2023-02-28T04:27:54;6.33;;;6.33;;
24787;SDS011;12883;52.662;5.196;2023-02-28T04:30:19;6.80;;;6.80;;
24787;SDS011;12883;52.662;5.196;2023-02-28T04:32:45;6.07;;;6.07;;
24787;SDS011;12883;52.662;5.196;2023-02-28T04:35:10;6.27;;;6.27;;
24787;SDS011;12883;52.662;5.196;2023-02-28T04:37:35;6.00;;;6.00;;
24787;SDS011;12883;52.662;5.196;2023-02-28T04:40:02;6.03;;;6.03;;
24787;SDS011;12883;52.662;5.196;2023-02-28T04:42:28;6.00;;;6.00;;
24787;SDS011;12883;52.662;5.196;2023-02-28T04:45:00;6.70;;;6.70;;
24787;SDS011;12883;52.662;5.196;2023-02-28T04:47:26;6.30;;;6.30;;
24787;SDS011;12883;52.662;5.196;2023-02-28T04:49:52;6.73;;;6.73;;
24787;SDS011;12883;52.662;5.196;2023-02-28T04:52:17;7.17;;;7.17;;
24787;SDS011;12883;52.662;5.196;2023-02-28T04:54:43;7.27;;;7.27;;
24787;SDS011;12883;52.662;5.196;2023-02-28T04:57:08;7.00;;;7.00;;
24787;SDS011;12883;52.662;5.196;2023-02-28T04:59:33;7.33;;;7.33;;
24787;SDS011;12883;52.662;5.196;2023-02-28T05:01:59;6.83;;;6.83;;
24787;SDS011;12883;52.662;5.196;2023-02-28T05:04:24;6.97;;;6.97;;
24787;SDS011;12883;52.662;5.196;2023-02-28T05:06:49;7.30;;;7.30;;
24787;SDS011;12883;52.662;5.196;2023-02-28T05:09:15;5.93;;;5.93;;
24787;SDS011;12883;52.662;5.196;2023-02-28T05:11:40;6.50;;;6.50;;
24787;SDS011;12883;52.662;5.196;2023-02-28T05:14:08;7.47;;;7.47;;
24787;SDS011;12883;52.662;5.196;2023-02-28T05:16:36;7.90;;;7.90;;
24787;SDS011;12883;52.662;5.196;2023-02-28T05:19:01;7.90;;;7.87;;
24787;SDS011;12883;52.662;5.196;2023-02-28T05:21:28;7.37;;;7.37;;
24787;SDS011;12883;52.662;5.196;2023-02-28T05:23:57;7.30;;;7.30;;
24787;SDS011;12883;52.662;5.196;2023-02-28T05:26:23;7.70;;;7.70;;
24787;SDS011;12883;52.662;5.196;2023-02-28T05:28:49;8.53;;;8.53;;
24787;SDS011;12883;52.662;5.196;2023-02-28T05:31:14;7.93;;;7.93;;
24787;SDS011;12883;52.662;5.196;2023-02-28T05:33:40;8.37;;;8.37;;
24787;SDS011;12883;52.662;5.196;2023-02-28T05:36:06;8.07;;;8.07;;
24787;SDS011;12883;52.662;5.196;2023-02-28T05:38:31;8.73;;;8.73;;
24787;SDS011;12883;52.662;5.196;2023-02-28T05:40:57;9.37;;;9.37;;
24787;SDS011;12883;52.662;5.196;2023-02-28T05:43:22;8.17;;;8.17;;
24787;SDS011;12883;52.662;5.196;2023-02-28T05:45:48;8.93;;;8.93;;
24787;SDS011;12883;52.662;5.196;2023-02-28T05:48:13;8.77;;;8.77;;
24787;SDS011;12883;52.662;5.196;2023-02-28T05:50:39;8.43;;;8.43;;
24787;SDS011;12883;52.662;5.196;2023-02-28T05:53:04;8.83;;;8.83;;
24787;SDS011;12883;52.662;5.196;2023-02-28T05:55:30;9.23;;;9.23;;
24787;SDS011;12883;52.662;5.196;2023-02-28T05:57:55;8.50;;;8.50;;
24787;SDS011;12883;52.662;5.196;2023-02-28T06:00:21;8.93;;;8.93;;
24787;SDS011;12883;52.662;5.196;2023-02-28T06:02:46;9.77;;;9.77;;
24787;SDS011;12883;52.662;5.196;2023-02-28T06:05:16;9.47;;;9.47;;
24787;SDS011;12883;52.662;5.196;2023-02-28T06:07:42;10.70;;;10.70;;
24787;SDS011;12883;52.662;5.196;2023-02-28T06:10:09;11.70;;;11.70;;
24787;SDS011;12883;52.662;5.196;2023-02-28T06:12:36;13.40;;;13.40;;
24787;SDS011;12883;52.662;5.196;2023-02-28T06:15:02;12.67;;;12.67;;
24787;SDS011;12883;52.662;5.196;2023-02-28T06:17:28;13.20;;;13.20;;
24787;SDS011;12883;52.662;5.196;2023-02-28T06:19:54;14.87;;;14.77;;
24787;SDS011;12883;52.662;5.196;2023-02-28T06:22:19;12.90;;;12.90;;
24787;SDS011;12883;52.662;5.196;2023-02-28T06:24:44;14.37;;;14.27;;
24787;SDS011;12883;52.662;5.196;2023-02-28T06:27:09;13.50;;;13.50;;
24787;SDS011;12883;52.662;5.196;2023-02-28T06:29:35;13.90;;;13.90;;
24787;SDS011;12883;52.662;5.196;2023-02-28T06:32:01;13.57;;;13.57;;
24787;SDS011;12883;52.662;5.196;2023-02-28T06:34:26;13.90;;;13.90;;
24787;SDS011;12883;52.662;5.196;2023-02-28T06:36:52;13.10;;;13.10;;
24787;SDS011;12883;52.662;5.196;2023-02-28T06:39:17;13.03;;;13.03;;
24787;SDS011;12883;52.662;5.196;2023-02-28T06:41:43;12.67;;;12.67;;
24787;SDS011;12883;52.662;5.196;2023-02-28T06:44:17;13.13;;;13.13;;
24787;SDS011;12883;52.662;5.196;2023-02-28T06:46:44;13.50;;;13.50;;
24787;SDS011;12883;52.662;5.196;2023-02-28T06:49:10;13.90;;;13.90;;
24787;SDS011;12883;52.662;5.196;2023-02-28T06:51:37;13.73;;;13.73;;
24787;SDS011;12883;52.662;5.196;2023-02-28T06:54:04;14.60;;;14.60;;
24787;SDS011;12883;52.662;5.196;2023-02-28T06:56:29;14.43;;;14.43;;
24787;SDS011;12883;52.662;5.196;2023-02-28T06:58:55;15.07;;;15.07;;
24787;SDS011;12883;52.662;5.196;2023-02-28T07:01:21;15.57;;;15.47;;
24787;SDS011;12883;52.662;5.196;2023-02-28T07:03:49;13.20;;;13.20;;
24787;SDS011;12883;52.662;5.196;2023-02-28T07:06:17;13.47;;;13.47;;
24787;SDS011;12883;52.662;5.196;2023-02-28T07:08:44;14.37;;;14.30;;
24787;SDS011;12883;52.662;5.196;2023-02-28T07:11:09;15.27;;;15.20;;
24787;SDS011;12883;52.662;5.196;2023-02-28T07:13:35;15.50;;;15.50;;
24787;SDS011;12883;52.662;5.196;2023-02-28T07:16:01;13.43;;;13.43;;
24787;SDS011;12883;52.662;5.196;2023-02-28T07:18:29;14.10;;;14.10;;
24787;SDS011;12883;52.662;5.196;2023-02-28T07:20:54;13.50;;;13.50;;
24787;SDS011;12883;52.662;5.196;2023-02-28T07:23:20;12.97;;;12.97;;
24787;SDS011;12883;52.662;5.196;2023-02-28T07:25:46;12.40;;;12.40;;
24787;SDS011;12883;52.662;5.196;2023-02-28T07:28:11;11.90;;;11.90;;
24787;SDS011;12883;52.662;5.196;2023-02-28T07:30:38;11.23;;;11.23;;
24787;SDS011;12883;52.662;5.196;2023-02-28T07:33:03;9.83;;;9.83;;
24787;SDS011;12883;52.662;5.196;2023-02-28T07:35:29;7.93;;;7.93;;
24787;SDS011;12883;52.662;5.196;2023-02-28T07:37:57;7.90;;;7.90;;
24787;SDS011;12883;52.662;5.196;2023-02-28T07:40:23;8.07;;;8.07;;
24787;SDS011;12883;52.662;5.196;2023-02-28T07:42:49;9.07;;;9.07;;
24787;SDS011;12883;52.662;5.196;2023-02-28T07:45:14;7.10;;;7.10;;
24787;SDS011;12883;52.662;5.196;2023-02-28T07:47:40;7.03;;;7.03;;
24787;SDS011;12883;52.662;5.196;2023-02-28T07:50:07;7.53;;;7.53;;
24787;SDS011;12883;52.662;5.196;2023-02-28T07:52:38;7.57;;;7.57;;
24787;SDS011;12883;52.662;5.196;2023-02-28T07:55:05;7.83;;;7.83;;
24787;SDS011;12883;52.662;5.196;2023-02-28T07:57:31;8.10;;;8.10;;
24787;SDS011;12883;52.662;5.196;2023-02-28T07:59:57;7.87;;;7.87;;
24787;SDS011;12883;52.662;5.196;2023-02-28T08:02:22;7.47;;;7.47;;
24787;SDS011;12883;52.662;5.196;2023-02-28T08:04:48;7.60;;;7.60;;
24787;SDS011;12883;52.662;5.196;2023-02-28T08:07:14;8.13;;;8.13;;
24787;SDS011;12883;52.662;5.196;2023-02-28T08:09:40;7.83;;;7.83;;
24787;SDS011;12883;52.662;5.196;2023-02-28T08:12:06;7.57;;;7.57;;
24787;SDS011;12883;52.662;5.196;2023-02-28T08:14:32;8.00;;;8.00;;
24787;SDS011;12883;52.662;5.196;2023-02-28T08:16:58;8.27;;;8.27;;
24787;SDS011;12883;52.662;5.196;2023-02-28T08:19:23;8.33;;;8.33;;
24787;SDS011;12883;52.662;5.196;2023-02-28T08:21:49;7.87;;;7.87;;
24787;SDS011;12883;52.662;5.196;2023-02-28T08:24:14;8.20;;;8.20;;
24787;SDS011;12883;52.662;5.196;2023-02-28T08:26:39;7.63;;;7.63;;
24787;SDS011;12883;52.662;5.196;2023-02-28T08:29:05;7.33;;;7.33;;
24787;SDS011;12883;52.662;5.196;2023-02-28T08:31:30;7.67;;;7.67;;
24787;SDS011;12883;52.662;5.196;2023-02-28T08:33:55;7.83;;;7.83;;
24787;SDS011;12883;52.662;5.196;2023-02-28T08:36:23;8.07;;;8.07;;
24787;SDS011;12883;52.662;5.196;2023-02-28T08:38:49;7.70;;;7.70;;
24787;SDS011;12883;52.662;5.196;2023-02-28T08:41:14;7.43;;;7.43;;
24787;SDS011;12883;52.662;5.196;2023-02-28T08:43:40;7.90;;;7.90;;
24787;SDS011;12883;52.662;5.196;2023-02-28T08:46:06;7.87;;;7.87;;
24787;SDS011;12883;52.662;5.196;2023-02-28T08:48:33;7.37;;;7.37;;
24787;SDS011;12883;52.662;5.196;2023-02-28T08:51:01;7.23;;;7.23;;
24787;SDS011;12883;52.662;5.196;2023-02-28T08:53:28;7.30;;;7.30;;
24787;SDS011;12883;52.662;5.196;2023-02-28T08:56:01;7.60;;;7.60;;
24787;SDS011;12883;52.662;5.196;2023-02-28T08:58:28;7.80;;;7.80;;
24787;SDS011;12883;52.662;5.196;2023-02-28T09:00:54;7.77;;;7.77;;
24787;SDS011;12883;52.662;5.196;2023-02-28T09:03:20;7.37;;;7.37;;
24787;SDS011;12883;52.662;5.196;2023-02-28T09:05:59;8.57;;;8.57;;
24787;SDS011;12883;52.662;5.196;2023-02-28T09:08:26;7.93;;;7.93;;
24787;SDS011;12883;52.662;5.196;2023-02-28T09:10:53;9.10;;;9.10;;
24787;SDS011;12883;52.662;5.196;2023-02-28T09:13:19;8.13;;;8.13;;
24787;SDS011;12883;52.662;5.196;2023-02-28T09:15:45;8.23;;;8.23;;
24787;SDS011;12883;52.662;5.196;2023-02-28T09:18:11;8.23;;;8.23;;
24787;SDS011;12883;52.662;5.196;2023-02-28T09:20:40;8.37;;;8.37;;
24787;SDS011;12883;52.662;5.196;2023-02-28T09:23:06;8.87;;;8.87;;
24787;SDS011;12883;52.662;5.196;2023-02-28T09:25:32;8.57;;;8.57;;
24787;SDS011;12883;52.662;5.196;2023-02-28T09:27:58;8.67;;;8.67;;
24787;SDS011;12883;52.662;5.196;2023-02-28T09:30:23;7.77;;;7.77;;
24787;SDS011;12883;52.662;5.196;2023-02-28T09:32:48;8.13;;;8.13;;
24787;SDS011;12883;52.662;5.196;2023-02-28T09:35:17;9.13;;;9.13;;
24787;SDS011;12883;52.662;5.196;2023-02-28T09:37:43;7.97;;;7.97;;
24787;SDS011;12883;52.662;5.196;2023-02-28T09:40:10;8.70;;;8.70;;
24787;SDS011;12883;52.662;5.196;2023-02-28T09:42:37;9.00;;;9.00;;
24787;SDS011;12883;52.662;5.196;2023-02-28T09:45:05;8.50;;;8.50;;
24787;SDS011;12883;52.662;5.196;2023-02-28T09:47:42;7.90;;;7.90;;
24787;SDS011;12883;52.662;5.196;2023-02-28T09:53:02;7.77;;;7.77;;
24787;SDS011;12883;52.662;5.196;2023-02-28T09:55:54;8.37;;;8.37;;
24787;SDS011;12883;52.662;5.196;2023-02-28T09:58:35;6.93;;;6.93;;
24787;SDS011;12883;52.662;5.196;2023-02-28T10:01:12;7.97;;;7.97;;
24787;SDS011;12883;52.662;5.196;2023-02-28T10:03:44;8.30;;;8.30;;
24787;SDS011;12883;52.662;5.196;2023-02-28T10:06:19;8.17;;;8.17;;
24787;SDS011;12883;52.662;5.196;2023-02-28T10:11:16;8.40;;;8.40;;
24787;SDS011;12883;52.662;5.196;2023-02-28T10:16:28;7.97;;;7.97;;
24787;SDS011;12883;52.662;5.196;2023-02-28T10:22:11;7.43;;;7.43;;
24787;SDS011;12883;52.662;5.196;2023-02-28T10:24:42;6.70;;;6.70;;
24787;SDS011;12883;52.662;5.196;2023-02-28T10:27:19;7.30;;;7.30;;
24787;SDS011;12883;52.662;5.196;2023-02-28T10:29:49;6.50;;;6.50;;
24787;SDS011;12883;52.662;5.196;2023-02-28T10:32:23;5.93;;;5.93;;
24787;SDS011;12883;52.662;5.196;2023-02-28T10:34:55;5.63;;;5.63;;
24787;SDS011;12883;52.662;5.196;2023-02-28T10:37:24;6.00;;;6.00;;
24787;SDS011;12883;52.662;5.196;2023-02-28T10:39:49;5.00;;;5.00;;
24787;SDS011;12883;52.662;5.196;2023-02-28T10:42:23;4.83;;;4.83;;
24787;SDS011;12883;52.662;5.196;2023-02-28T10:47:37;5.00;;;5.00;;
24787;SDS011;12883;52.662;5.196;2023-02-28T11:01:25;4.37;;;4.37;;
24787;SDS011;12883;52.662;5.196;2023-02-28T11:04:00;4.33;;;4.33;;
24787;SDS011;12883;52.662;5.196;2023-02-28T11:06:26;3.50;;;3.50;;
24787;SDS011;12883;52.662;5.196;2023-02-28T11:08:56;4.23;;;4.23;;
24787;SDS011;12883;52.662;5.196;2023-02-28T11:11:28;3.87;;;3.87;;
24787;SDS011;12883;52.662;5.196;2023-02-28T11:13:57;3.47;;;3.47;;
24787;SDS011;12883;52.662;5.196;2023-02-28T11:16:35;3.60;;;3.60;;
24787;SDS011;12883;52.662;5.196;2023-02-28T11:19:03;4.00;;;4.00;;
24787;SDS011;12883;52.662;5.196;2023-02-28T11:21:34;3.73;;;3.73;;
24787;SDS011;12883;52.662;5.196;2023-02-28T11:24:23;3.67;;;3.67;;
24787;SDS011;12883;52.662;5.196;2023-02-28T11:26:49;4.10;;;4.10;;
24787;SDS011;12883;52.662;5.196;2023-02-28T11:29:25;3.80;;;3.80;;
24787;SDS011;12883;52.662;5.196;2023-02-28T11:32:02;3.33;;;3.33;;
24787;SDS011;12883;52.662;5.196;2023-02-28T11:34:47;3.50;;;3.50;;
24787;SDS011;12883;52.662;5.196;2023-02-28T11:37:27;3.70;;;3.70;;
24787;SDS011;12883;52.662;5.196;2023-02-28T11:39:53;3.90;;;3.90;;
24787;SDS011;12883;52.662;5.196;2023-02-28T11:50:26;3.40;;;3.40;;
24787;SDS011;12883;52.662;5.196;2023-02-28T11:55:45;3.83;;;3.83;;
24787;SDS011;12883;52.662;5.196;2023-02-28T12:00:57;7.70;;;7.70;;
24787;SDS011;12883;52.662;5.196;2023-02-28T12:08:54;3.20;;;3.20;;
24787;SDS011;12883;52.662;5.196;2023-02-28T12:11:26;2.77;;;2.77;;
24787;SDS011;12883;52.662;5.196;2023-02-28T12:17:09;2.67;;;2.67;;
24787;SDS011;12883;52.662;5.196;2023-02-28T12:22:31;2.77;;;2.77;;
24787;SDS011;12883;52.662;5.196;2023-02-28T12:28:21;2.40;;;2.40;;
24787;SDS011;12883;52.662;5.196;2023-02-28T12:33:24;2.53;;;2.53;;
24787;SDS011;12883;52.662;5.196;2023-02-28T12:35:58;2.43;;;2.43;;
24787;SDS011;12883;52.662;5.196;2023-02-28T12:38:27;2.33;;;2.33;;
24787;SDS011;12883;52.662;5.196;2023-02-28T12:43:26;1.87;;;1.87;;
24787;SDS011;12883;52.662;5.196;2023-02-28T12:46:02;1.30;;;1.30;;
24787;SDS011;12883;52.662;5.196;2023-02-28T12:48:46;1.30;;;1.30;;
24787;SDS011;12883;52.662;5.196;2023-02-28T12:51:16;1.60;;;1.60;;
24787;SDS011;12883;52.662;5.196;2023-02-28T12:53:49;2.30;;;2.30;;
24787;SDS011;12883;52.662;5.196;2023-02-28T12:58:56;1.73;;;1.73;;
24787;SDS011;12883;52.662;5.196;2023-02-28T13:07:36;2.10;;;2.10;;
24787;SDS011;12883;52.662;5.196;2023-02-28T13:10:14;2.53;;;2.53;;
24787;SDS011;12883;52.662;5.196;2023-02-28T13:12:48;2.20;;;2.20;;
24787;SDS011;12883;52.662;5.196;2023-02-28T13:17:50;2.03;;;2.03;;
24787;SDS011;12883;52.662;5.196;2023-02-28T13:20:21;1.37;;;1.37;;
24787;SDS011;12883;52.662;5.196;2023-02-28T13:22:53;0.97;;;0.97;;
24787;SDS011;12883;52.662;5.196;2023-02-28T13:27:48;1.67;;;1.67;;
24787;SDS011;12883;52.662;5.196;2023-02-28T13:33:22;2.20;;;2.20;;
24787;SDS011;12883;52.662;5.196;2023-02-28T13:35:48;2.10;;;2.10;;
24787;SDS011;12883;52.662;5.196;2023-02-28T13:38:32;1.90;;;1.90;;
24787;SDS011;12883;52.662;5.196;2023-02-28T13:44:11;2.30;;;2.30;;
24787;SDS011;12883;52.662;5.196;2023-02-28T13:51:48;1.97;;;1.97;;
24787;SDS011;12883;52.662;5.196;2023-02-28T13:56:57;2.50;;;2.50;;
24787;SDS011;12883;52.662;5.196;2023-02-28T14:02:33;2.00;;;2.00;;
24787;SDS011;12883;52.662;5.196;2023-02-28T14:05:05;2.10;;;2.10;;
24787;SDS011;12883;52.662;5.196;2023-02-28T14:07:48;2.30;;;2.30;;
24787;SDS011;12883;52.662;5.196;2023-02-28T14:10:31;1.87;;;1.87;;
24787;SDS011;12883;52.662;5.196;2023-02-28T14:15:30;2.07;;;2.07;;
24787;SDS011;12883;52.662;5.196;2023-02-28T14:18:00;2.17;;;2.17;;
24787;SDS011;12883;52.662;5.196;2023-02-28T14:20:29;1.97;;;1.97;;
24787;SDS011;12883;52.662;5.196;2023-02-28T14:25:52;2.37;;;2.37;;
24787;SDS011;12883;52.662;5.196;2023-02-28T14:31:11;1.90;;;1.90;;
24787;SDS011;12883;52.662;5.196;2023-02-28T14:36:43;2.00;;;2.00;;
24787;SDS011;12883;52.662;5.196;2023-02-28T14:39:20;2.00;;;2.00;;
24787;SDS011;12883;52.662;5.196;2023-02-28T14:41:47;2.10;;;2.10;;
24787;SDS011;12883;52.662;5.196;2023-02-28T14:46:39;2.17;;;2.17;;
24787;SDS011;12883;52.662;5.196;2023-02-28T14:49:05;2.50;;;2.50;;
24787;SDS011;12883;52.662;5.196;2023-02-28T14:51:37;2.47;;;2.47;;
24787;SDS011;12883;52.662;5.196;2023-02-28T14:54:02;2.30;;;2.30;;
24787;SDS011;12883;52.662;5.196;2023-02-28T14:56:37;2.50;;;2.50;;
24787;SDS011;12883;52.662;5.196;2023-02-28T14:59:03;2.57;;;2.57;;
24787;SDS011;12883;52.662;5.196;2023-02-28T15:01:30;2.73;;;2.73;;
24787;SDS011;12883;52.662;5.196;2023-02-28T15:04:11;2.37;;;2.37;;
24787;SDS011;12883;52.662;5.196;2023-02-28T15:07:34;2.90;;;2.90;;
24787;SDS011;12883;52.662;5.196;2023-02-28T15:09:36;2.53;;;2.53;;
24787;SDS011;12883;52.662;5.196;2023-02-28T15:12:01;2.47;;;2.47;;
24787;SDS011;12883;52.662;5.196;2023-02-28T15:14:27;2.27;;;2.27;;
24787;SDS011;12883;52.662;5.196;2023-02-28T15:16:56;2.63;;;2.63;;
24787;SDS011;12883;52.662;5.196;2023-02-28T15:19:28;2.83;;;2.83;;
24787;SDS011;12883;52.662;5.196;2023-02-28T15:21:58;2.60;;;2.60;;
24787;SDS011;12883;52.662;5.196;2023-02-28T15:25:10;2.77;;;2.77;;
24787;SDS011;12883;52.662;5.196;2023-02-28T15:27:21;2.60;;;2.60;;
24787;SDS011;12883;52.662;5.196;2023-02-28T15:29:50;2.77;;;2.77;;
24787;SDS011;12883;52.662;5.196;2023-02-28T15:32:23;2.50;;;2.50;;
24787;SDS011;12883;52.662;5.196;2023-02-28T15:34:55;3.50;;;3.50;;
24787;SDS011;12883;52.662;5.196;2023-02-28T15:40:15;2.57;;;2.57;;
24787;SDS011;12883;52.662;5.196;2023-02-28T15:43:06;2.90;;;2.90;;
24787;SDS011;12883;52.662;5.196;2023-02-28T15:45:45;3.53;;;3.53;;
24787;SDS011;12883;52.662;5.196;2023-02-28T15:48:19;3.47;;;3.47;;
24787;SDS011;12883;52.662;5.196;2023-02-28T15:50:47;2.90;;;2.90;;
24787;SDS011;12883;52.662;5.196;2023-02-28T15:53:16;3.10;;;3.10;;
24787;SDS011;12883;52.662;5.196;2023-02-28T15:55:44;3.37;;;3.37;;
24787;SDS011;12883;52.662;5.196;2023-02-28T15:58:10;3.20;;;3.20;;
24787;SDS011;12883;52.662;5.196;2023-02-28T16:00:38;3.07;;;3.07;;
24787;SDS011;12883;52.662;5.196;2023-02-28T16:03:22;3.43;;;3.43;;
24787;SDS011;12883;52.662;5.196;2023-02-28T16:06:07;3.50;;;3.50;;
24787;SDS011;12883;52.662;5.196;2023-02-28T16:08:42;3.70;;;3.70;;
24787;SDS011;12883;52.662;5.196;2023-02-28T16:11:10;3.77;;;3.77;;
24787;SDS011;12883;52.662;5.196;2023-02-28T16:13:36;3.73;;;3.73;;
24787;SDS011;12883;52.662;5.196;2023-02-28T16:16:02;3.57;;;3.57;;
24787;SDS011;12883;52.662;5.196;2023-02-28T16:18:28;3.30;;;3.30;;
24787;SDS011;12883;52.662;5.196;2023-02-28T16:20:53;3.23;;;3.23;;
24787;SDS011;12883;52.662;5.196;2023-02-28T16:23:19;3.50;;;3.50;;
24787;SDS011;12883;52.662;5.196;2023-02-28T16:25:44;3.90;;;3.90;;
24787;SDS011;12883;52.662;5.196;2023-02-28T16:30:42;3.83;;;3.83;;
24787;SDS011;12883;52.662;5.196;2023-02-28T16:33:07;3.70;;;3.70;;
24787;SDS011;12883;52.662;5.196;2023-02-28T16:35:33;3.90;;;3.90;;
24787;SDS011;12883;52.662;5.196;2023-02-28T16:37:58;3.53;;;3.53;;
24787;SDS011;12883;52.662;5.196;2023-02-28T16:40:25;3.30;;;3.30;;
24787;SDS011;12883;52.662;5.196;2023-02-28T16:42:51;3.37;;;3.37;;
24787;SDS011;12883;52.662;5.196;2023-02-28T16:45:23;3.00;;;3.00;;
24787;SDS011;12883;52.662;5.196;2023-02-28T16:47:53;3.30;;;3.30;;
24787;SDS011;12883;52.662;5.196;2023-02-28T16:50:23;3.70;;;3.70;;
24787;SDS011;12883;52.662;5.196;2023-02-28T16:52:50;3.40;;;3.40;;
24787;SDS011;12883;52.662;5.196;2023-02-28T16:55:19;4.00;;;4.00;;
24787;SDS011;12883;52.662;5.196;2023-02-28T16:57:47;4.23;;;4.23;;
24787;SDS011;12883;52.662;5.196;2023-02-28T17:00:17;3.70;;;3.70;;
24787;SDS011;12883;52.662;5.196;2023-02-28T17:02:42;4.30;;;4.30;;
24787;SDS011;12883;52.662;5.196;2023-02-28T17:05:08;4.03;;;4.03;;
24787;SDS011;12883;52.662;5.196;2023-02-28T17:07:36;4.17;;;4.17;;
24787;SDS011;12883;52.662;5.196;2023-02-28T17:10:01;4.00;;;4.00;;
24787;SDS011;12883;52.662;5.196;2023-02-28T17:12:33;4.70;;;4.70;;
24787;SDS011;12883;52.662;5.196;2023-02-28T17:14:58;3.73;;;3.73;;
24787;SDS011;12883;52.662;5.196;2023-02-28T17:17:24;3.90;;;3.90;;
24787;SDS011;12883;52.662;5.196;2023-02-28T17:19:50;4.20;;;4.20;;
24787;SDS011;12883;52.662;5.196;2023-02-28T17:22:15;4.10;;;4.10;;
24787;SDS011;12883;52.662;5.196;2023-02-28T17:24:41;3.97;;;3.97;;
24787;SDS011;12883;52.662;5.196;2023-02-28T17:27:08;4.40;;;4.40;;
24787;SDS011;12883;52.662;5.196;2023-02-28T17:29:36;4.37;;;4.37;;